Time;durP1;ratioP1;P1;durP2;ratioP2;P2;SDS_P1;SDS_P2;PMS_P1;PMS_P2;Temp;Humidity;BMP_temperature;BMP_pressure;BME280_temperature;BME280_humidity;BME280_pressure;Samples;Min_cycle;Max_cycle;Signal;HPM_P1;HPM_P2
2022/01/17 00:01:33;;;;;;;11.32;7.22;;;;;;;14.98;46.24;101135.50;5095856;28;20028;-83
2022/01/17 00:03:58;;;;;;;11.93;7.82;;;;;;;14.98;46.31;101125.00;5094685;28;20473;-85
2022/01/17 00:06:24;;;;;;;10.55;7.35;;;;;;;14.97;46.30;101127.63;5094792;28;20132;-85
2022/01/17 00:08:50;;;;;;;9.70;7.18;;;;;;;15.00;46.13;101123.22;5093797;28;20107;-85
2022/01/17 00:11:16;;;;;;;11.88;7.63;;;;;;;15.00;46.31;101127.56;5093307;28;20020;-86
2022/01/17 00:13:46;;;;;;;9.68;7.05;;;;;;;15.02;46.35;101126.69;5094547;28;20035;-85
2022/01/17 00:16:17;;;;;;;14.10;8.27;;;;;;;15.03;46.28;101127.56;5093632;28;20031;-86
2022/01/17 00:21:13;;;;;;;10.88;7.40;;;;;;;14.97;46.32;101136.38;5098490;28;20030;-86
2022/01/17 00:23:38;;;;;;;11.25;8.43;;;;;;;15.00;46.24;101136.34;5098720;28;20123;-85
2022/01/17 00:26:04;;;;;;;10.23;7.07;;;;;;;14.98;46.31;101127.63;5098304;28;20496;-85
2022/01/17 00:28:31;;;;;;;10.88;8.00;;;;;;;14.99;46.18;101137.25;5097469;28;20031;-86
2022/01/17 00:30:57;;;;;;;10.13;7.20;;;;;;;15.00;46.28;101132.84;5098966;28;20028;-85
2022/01/17 00:33:22;;;;;;;10.43;7.03;;;;;;;14.98;46.24;101140.75;5098774;28;20107;-85
2022/01/17 00:35:48;;;;;;;10.02;7.35;;;;;;;14.99;46.26;101142.50;5098799;28;20027;-86
2022/01/17 00:38:14;;;;;;;10.85;7.07;;;;;;;15.03;46.03;101141.56;5097935;28;20102;-85
2022/01/17 00:40:41;;;;;;;10.10;7.22;;;;;;;15.03;46.15;101141.56;5097416;28;20020;-85
2022/01/17 00:43:07;;;;;;;9.13;6.32;;;;;;;14.99;46.23;101141.63;5097473;28;20027;-85
2022/01/17 00:45:35;;;;;;;11.13;7.22;;;;;;;15.03;46.07;101135.44;5097406;28;20465;-85
2022/01/17 00:48:01;;;;;;;10.52;7.18;;;;;;;14.95;46.27;101130.25;5097152;28;20044;-85
2022/01/17 00:50:28;;;;;;;10.32;7.22;;;;;;;14.96;46.13;101137.25;5096923;28;20039;-85
2022/01/17 00:52:54;;;;;;;10.98;7.68;;;;;;;14.94;46.28;101133.78;5096860;28;20449;-86
2022/01/17 00:55:20;;;;;;;11.65;7.70;;;;;;;14.97;46.11;101139.00;5096618;28;20035;-85
2022/01/17 00:57:46;;;;;;;9.93;7.13;;;;;;;14.93;46.28;101142.56;5098283;28;20020;-85
2022/01/17 01:00:13;;;;;;;10.05;7.15;;;;;;;14.96;46.24;101142.50;5097814;28;20099;-84
2022/01/17 01:02:40;;;;;;;10.77;8.13;;;;;;;14.97;46.36;101143.41;5096554;28;20441;-85
2022/01/17 01:05:07;;;;;;;9.57;7.28;;;;;;;14.90;46.24;101145.19;5096433;28;20023;-84
2022/01/17 01:07:33;;;;;;;10.25;7.13;;;;;;;14.91;46.30;101149.56;5096534;28;20033;-85
2022/01/17 01:10:10;;;;;;;9.82;6.95;;;;;;;14.94;46.33;101149.56;5096309;28;20457;-84
2022/01/17 01:12:37;;;;;;;10.10;7.25;;;;;;;14.96;46.17;101142.50;5097413;28;20046;-84
2022/01/17 01:15:06;;;;;;;8.68;6.78;;;;;;;14.96;46.20;101142.50;5096292;28;20024;-85
2022/01/17 01:17:47;;;;;;;10.18;7.25;;;;;;;14.95;46.16;101151.28;5096203;28;20024;-84
2022/01/17 01:20:26;;;;;;;10.20;6.75;;;;;;;14.96;46.10;101147.78;5096216;28;20103;-86
2022/01/17 01:28:21;;;;;;;9.68;6.90;;;;;;;14.96;46.12;101163.53;5097230;28;20124;-86
2022/01/17 01:30:50;;;;;;;9.77;6.82;;;;;;;14.93;46.14;101160.97;5096867;28;20433;-85
2022/01/17 01:33:26;;;;;;;9.77;6.88;;;;;;;14.95;45.92;101156.53;5096108;28;20023;-85
2022/01/17 01:35:59;;;;;;;10.88;7.85;;;;;;;14.98;46.10;101167.06;5095720;28;20054;-85
2022/01/17 01:38:24;;;;;;;9.65;7.10;;;;;;;14.98;46.04;101159.16;5096166;28;20032;-84
2022/01/17 01:40:50;;;;;;;9.70;6.70;;;;;;;14.94;46.02;101160.06;5097193;28;20144;-85
2022/01/17 01:43:15;;;;;;;10.00;7.60;;;;;;;14.96;46.08;101162.69;5095929;28;20020;-84
2022/01/17 01:45:46;;;;;;;8.55;6.68;;;;;;;14.97;45.98;101153.91;5095770;28;20027;-85
2022/01/17 01:48:12;;;;;;;9.68;6.65;;;;;;;14.99;46.04;101153.00;5095635;28;20381;-84
2022/01/17 01:50:37;;;;;;;8.63;6.65;;;;;;;14.91;46.27;101165.34;5095772;28;20081;-84
2022/01/17 01:53:04;;;;;;;9.30;7.05;;;;;;;14.89;46.07;101157.47;5095970;28;20016;-85
2022/01/17 01:55:30;;;;;;;8.50;6.13;;;;;;;14.93;46.21;101153.06;5096164;28;20024;-85
2022/01/17 01:57:57;;;;;;;9.27;6.40;;;;;;;14.95;46.21;101146.03;5097022;28;20028;-84
2022/01/17 02:00:23;;;;;;;9.70;7.25;;;;;;;15.00;45.94;101144.25;5097848;28;20020;-84
2022/01/17 02:02:49;;;;;;;9.68;6.13;;;;;;;14.96;46.11;101144.28;5096345;28;20020;-84
2022/01/17 02:05:14;;;;;;;10.15;6.85;;;;;;;14.95;45.99;101156.53;5095931;28;20338;-83
2022/01/17 02:07:43;;;;;;;9.20;6.55;;;;;;;14.95;45.92;101146.03;5097000;28;20047;-86
2022/01/17 02:10:09;;;;;;;8.90;6.60;;;;;;;14.97;46.04;101149.50;5097029;28;20020;-86
2022/01/17 02:12:35;;;;;;;9.02;6.43;;;;;;;15.02;45.90;101155.59;5095839;28;20016;-86
2022/01/17 02:15:03;;;;;;;9.95;6.50;;;;;;;14.97;46.00;101153.91;5096342;28;20020;-85
2022/01/17 02:17:32;;;;;;;7.95;5.75;;;;;;;14.96;45.89;101145.13;5096508;28;20103;-85
2022/01/17 02:20:05;;;;;;;9.10;6.70;;;;;;;14.96;46.08;101163.53;5095894;28;20114;-85
2022/01/17 02:22:31;;;;;;;10.05;7.00;;;;;;;14.96;46.04;101158.28;5096033;28;20020;-86
2022/01/17 02:24:57;;;;;;;8.27;6.40;;;;;;;14.95;46.00;101160.91;5096030;28;20377;-85
2022/01/17 02:27:23;;;;;;;9.40;6.63;;;;;;;14.97;46.00;101167.06;5096625;28;20027;-85
2022/01/17 02:29:48;;;;;;;7.93;6.38;;;;;;;14.96;45.92;101166.16;5095730;28;20110;-85
2022/01/17 02:32:14;;;;;;;8.93;6.38;;;;;;;14.95;46.02;101177.56;5096564;28;20024;-84
2022/01/17 02:34:43;;;;;;;10.52;7.03;;;;;;;14.93;46.04;101163.59;5097681;28;20016;-85
2022/01/17 02:37:10;;;;;;;8.05;5.93;;;;;;;14.94;46.20;101167.06;5098785;28;20032;-87
2022/01/17 02:39:36;;;;;;;9.30;6.70;;;;;;;14.95;46.10;101168.81;5099857;28;20016;-86
2022/01/17 02:42:03;;;;;;;10.60;7.32;;;;;;;14.96;45.98;101174.06;5095086;28;20485;-85
2022/01/17 02:44:29;;;;;;;8.32;6.63;;;;;;;14.97;45.98;101185.47;5094617;28;20024;-85
2022/01/17 02:46:54;;;;;;;8.27;6.40;;;;;;;14.92;46.06;101180.25;5095645;28;20063;-85
2022/01/17 02:49:20;;;;;;;7.75;5.93;;;;;;;14.94;45.90;101188.97;5094317;28;20516;-85
2022/01/17 02:51:48;;;;;;;9.02;6.10;;;;;;;14.93;45.98;101184.63;5094646;28;20130;-85
2022/01/17 02:54:15;;;;;;;9.73;6.90;;;;;;;14.92;46.10;101188.13;5094895;28;20127;-85
2022/01/17 02:56:41;;;;;;;7.65;6.00;;;;;;;14.94;45.97;101183.72;5094899;28;20189;-88
2022/01/17 02:59:07;;;;;;;8.38;5.90;;;;;;;14.91;46.00;101181.09;5094488;28;20091;-86
2022/01/17 03:01:33;;;;;;;9.13;6.07;;;;;;;14.91;46.07;101191.63;5094455;28;20030;-86
2022/01/17 03:03:59;;;;;;;8.18;5.53;;;;;;;14.91;46.01;101186.38;5095568;28;20024;-86
2022/01/17 03:06:26;;;;;;;8.18;6.07;;;;;;;14.90;46.12;101189.88;5095448;28;20032;-86
2022/01/17 03:08:51;;;;;;;7.65;5.15;;;;;;;14.87;45.87;101189.91;5094588;28;20028;-84
2022/01/17 03:11:21;;;;;;;9.32;6.65;;;;;;;14.90;45.94;101184.63;5094641;28;20031;-86
2022/01/17 03:13:48;;;;;;;9.30;5.70;;;;;;;14.95;45.91;101181.94;5094639;28;20504;-84
2022/01/17 03:16:16;;;;;;;7.53;5.72;;;;;;;14.97;45.79;101175.78;5094475;28;20026;-85
2022/01/17 03:18:47;;;;;;;7.20;5.60;;;;;;;14.91;46.09;101173.22;5095521;28;20024;-85
2022/01/17 03:21:16;;;;;;;7.97;5.72;;;;;;;14.96;45.73;101168.81;5094244;28;20373;-85
2022/01/17 03:23:42;;;;;;;7.88;5.82;;;;;;;14.93;46.01;101173.22;5095306;28;20077;-85
2022/01/17 03:26:08;;;;;;;7.82;5.78;;;;;;;14.89;46.12;101181.13;5098566;28;20107;-86
2022/01/17 03:28:34;;;;;;;7.78;5.70;;;;;;;14.91;45.83;101175.84;5096731;28;20533;-85
2022/01/17 03:31:00;;;;;;;8.63;6.32;;;;;;;14.95;45.90;101167.06;5094453;28;20017;-84
2022/01/17 03:33:27;;;;;;;8.10;5.93;;;;;;;14.88;46.16;101160.13;5095488;28;20026;-86
2022/01/17 03:35:53;;;;;;;8.18;6.10;;;;;;;14.93;45.96;101153.06;5094379;28;20103;-86
2022/01/17 03:38:20;;;;;;;7.75;6.07;;;;;;;14.91;45.87;101157.44;5093962;28;20020;-85
2022/01/17 03:40:47;;;;;;;7.88;5.72;;;;;;;14.95;45.76;101159.19;5094117;28;20353;-86
2022/01/17 03:43:13;;;;;;;8.30;5.47;;;;;;;14.93;45.94;101154.81;5094040;28;20115;-85
2022/01/17 03:45:39;;;;;;;7.05;5.25;;;;;;;14.94;45.83;101149.56;5094013;28;20110;-85
2022/01/17 03:48:05;;;;;;;8.30;5.80;;;;;;;14.94;45.84;101154.81;5093734;28;20127;-85
2022/01/17 03:50:31;;;;;;;7.50;5.03;;;;;;;14.94;45.89;101152.19;5093816;28;20028;-85
2022/01/17 03:52:57;;;;;;;7.55;5.60;;;;;;;14.91;45.97;101157.44;5093739;28;20047;-86
2022/01/17 03:55:24;;;;;;;8.05;5.22;;;;;;;14.94;45.88;101160.06;5096482;28;20030;-86
2022/01/17 03:57:50;;;;;;;7.07;5.05;;;;;;;14.95;45.90;101156.53;5100143;28;20019;-86
2022/01/17 04:00:20;;;;;;;7.63;5.47;;;;;;;14.90;45.88;101167.09;5098395;28;20107;-85
2022/01/17 04:02:46;;;;;;;8.35;6.00;;;;;;;14.92;46.13;101156.59;5098307;28;20024;-86
2022/01/17 04:05:12;;;;;;;7.57;5.60;;;;;;;14.90;46.05;101153.97;5098186;28;20020;-87
2022/01/17 04:07:38;;;;;;;8.18;6.00;;;;;;;14.93;45.84;101147.81;5098769;28;20376;-84
2022/01/17 04:10:04;;;;;;;7.32;6.05;;;;;;;14.91;45.86;101149.56;5099943;28;20028;-86
2022/01/17 04:12:30;;;;;;;8.25;5.93;;;;;;;14.93;45.96;101142.56;5102634;28;20028;-86
2022/01/17 04:14:56;;;;;;;8.55;6.57;;;;;;;14.98;45.94;101155.66;5103176;28;20028;-87
2022/01/17 04:17:27;;;;;;;7.85;5.72;;;;;;;14.95;45.76;101147.78;5103875;28;20087;-87
2022/01/17 04:19:59;;;;;;;8.63;6.10;;;;;;;14.95;45.67;101151.28;5105063;28;20046;-87
2022/01/17 04:22:25;;;;;;;8.27;6.15;;;;;;;14.96;45.67;101142.50;5104219;28;20383;-85
2022/01/17 04:24:51;;;;;;;8.50;5.93;;;;;;;14.94;45.70;101152.19;5104556;28;20115;-86
2022/01/17 04:27:17;;;;;;;8.15;5.90;;;;;;;14.96;45.66;101147.78;5104222;28;20028;-86
2022/01/17 04:29:42;;;;;;;8.00;5.80;;;;;;;14.89;45.85;101136.47;5104275;28;20089;-86
2022/01/17 04:32:08;;;;;;;8.90;6.25;;;;;;;14.89;45.88;101146.09;5104635;28;20375;-86
2022/01/17 04:34:34;;;;;;;7.47;5.65;;;;;;;14.90;45.79;101137.31;5104591;28;20023;-86
2022/01/17 04:37:02;;;;;;;8.40;6.00;;;;;;;14.92;45.77;101146.06;5104117;28;20457;-87
2022/01/17 04:39:27;;;;;;;7.45;5.75;;;;;;;14.90;45.90;101142.56;5102281;28;20462;-86
2022/01/17 04:41:53;;;;;;;8.05;5.93;;;;;;;14.91;45.64;101144.31;5104145;28;20097;-87
2022/01/17 04:47:03;;;;;;;8.45;5.68;;;;;;;14.91;45.81;101144.31;5103406;28;20112;-85
2022/01/17 04:49:28;;;;;;;6.50;5.05;;;;;;;14.87;45.92;101142.59;5104083;28;20028;-85
2022/01/17 04:51:54;;;;;;;7.70;5.45;;;;;;;14.92;45.69;101140.81;5103676;28;20040;-87
2022/01/17 04:54:42;;;;;;;7.68;5.60;;;;;;;14.93;45.78;101137.31;5101735;28;20103;-86
2022/01/17 04:57:09;;;;;;;7.57;5.28;;;;;;;14.91;46.04;101144.31;5102499;28;20043;-86
2022/01/17 04:59:35;;;;;;;7.68;5.28;;;;;;;14.87;45.96;101138.22;5102375;28;20058;-85
2022/01/17 05:02:01;;;;;;;7.82;5.72;;;;;;;14.89;45.91;101135.56;5098437;28;20023;-87
2022/01/17 05:04:26;;;;;;;8.15;6.00;;;;;;;14.90;45.86;101135.56;5098066;28;20366;-86
2022/01/17 05:06:52;;;;;;;7.75;5.57;;;;;;;14.89;45.75;101135.56;5097440;28;20046;-85
2022/01/17 05:09:17;;;;;;;6.95;5.32;;;;;;;14.89;45.78;101135.56;5099088;28;20449;-85
2022/01/17 05:11:43;;;;;;;7.35;5.20;;;;;;;14.92;45.83;101137.31;5097802;28;20020;-86
2022/01/17 05:14:09;;;;;;;6.70;5.15;;;;;;;14.90;45.79;101132.06;5097260;28;20020;-85
2022/01/17 05:16:42;;;;;;;8.30;5.88;;;;;;;14.90;45.91;101132.06;5097553;28;20024;-86
2022/01/17 05:21:51;;;;;;;7.35;5.22;;;;;;;14.86;45.77;101143.47;5098415;28;20034;-87
2022/01/17 05:24:17;;;;;;;7.50;5.13;;;;;;;14.89;45.87;101146.09;5097626;28;20477;-85
2022/01/17 05:26:42;;;;;;;8.77;5.78;;;;;;;14.93;45.67;101141.66;5097287;28;20024;-86
2022/01/17 05:29:08;;;;;;;7.72;5.40;;;;;;;14.89;45.74;101140.84;5097395;28;20020;-85
2022/01/17 05:31:33;;;;;;;7.45;5.72;;;;;;;14.88;46.00;101152.22;5096702;28;20020;-86
2022/01/17 05:33:59;;;;;;;8.23;6.30;;;;;;;14.88;45.93;101145.19;5096700;28;20035;-85
2022/01/17 05:36:25;;;;;;;8.57;5.95;;;;;;;14.92;45.65;101148.69;5096693;28;20024;-85
2022/01/17 05:38:52;;;;;;;9.05;6.30;;;;;;;14.85;45.86;101139.09;5097092;28;20410;-87
2022/01/17 05:41:18;;;;;;;7.53;5.38;;;;;;;14.89;45.62;101141.72;5097248;28;20119;-86
2022/01/17 05:43:44;;;;;;;7.85;6.03;;;;;;;14.89;45.71;101152.22;5096885;28;20024;-88
2022/01/17 05:46:10;;;;;;;7.80;5.43;;;;;;;14.88;45.89;101145.19;5096850;28;20023;-87
2022/01/17 05:48:36;;;;;;;7.82;5.72;;;;;;;14.91;45.88;101144.31;5097100;28;20048;-86
2022/01/17 05:51:02;;;;;;;8.25;5.90;;;;;;;14.94;45.46;101149.56;5096686;28;20074;-86
2022/01/17 05:53:27;;;;;;;8.65;6.13;;;;;;;14.90;45.60;101153.09;5097492;28;20039;-86
2022/01/17 05:55:53;;;;;;;8.27;6.40;;;;;;;14.91;45.63;101152.19;5097962;28;20338;-87
2022/01/17 05:58:18;;;;;;;8.82;6.07;;;;;;;14.88;45.71;101152.22;5096820;28;20039;-86
2022/01/17 06:00:44;;;;;;;8.48;5.97;;;;;;;14.92;45.58;101153.97;5096527;28;20438;-88
2022/01/17 06:03:10;;;;;;;8.35;5.95;;;;;;;14.91;45.61;101160.06;5095614;28;20020;-87
2022/01/17 06:05:36;;;;;;;8.68;6.32;;;;;;;14.92;45.58;101163.59;5096828;28;20051;-88
2022/01/17 06:08:01;;;;;;;8.10;5.85;;;;;;;14.91;45.58;101160.06;5096503;28;20028;-88
2022/01/17 06:10:27;;;;;;;8.07;6.20;;;;;;;14.88;45.74;101155.72;5095971;28;20136;-86
2022/01/17 06:12:53;;;;;;;7.95;5.53;;;;;;;14.91;45.57;101149.56;5092412;28;20035;-85
2022/01/17 06:15:18;;;;;;;8.07;5.72;;;;;;;14.89;45.54;101152.22;5074818;28;20020;-85
2022/01/17 06:17:45;;;;;;;8.23;5.75;;;;;;;14.89;45.63;101156.59;5078296;28;20119;-87
2022/01/17 06:20:11;;;;;;;7.93;5.85;;;;;;;14.88;45.53;101158.34;5095032;28;20365;-87
2022/01/17 06:22:37;;;;;;;7.80;5.78;;;;;;;14.86;45.59;101168.00;5095022;28;20025;-86
2022/01/17 06:25:03;;;;;;;7.97;5.63;;;;;;;14.87;45.53;101166.25;5096390;28;20031;-87
2022/01/17 06:27:29;;;;;;;9.65;6.85;;;;;;;14.89;45.44;101162.75;5097904;28;20035;-86
2022/01/17 06:29:56;;;;;;;7.55;5.75;;;;;;;14.87;45.67;101161.00;5078636;28;20021;-86
2022/01/17 06:35:46;;;;;;;7.95;5.13;;;;;;;14.90;45.95;101164.47;5096115;28;20127;-86
2022/01/17 06:38:12;;;;;;;7.45;5.13;;;;;;;14.89;46.10;101178.50;5096372;28;20032;-86
2022/01/17 07:02:32;;;;;;;7.55;5.03;;;;;;;14.93;46.40;101179.34;5072874;28;20122;-87
2022/01/17 07:05:08;;;;;;;6.30;4.75;;;;;;;14.97;46.30;101175.78;5075008;28;20047;-86
2022/01/17 07:07:33;;;;;;;6.55;4.78;;;;;;;14.98;46.17;101163.53;5074545;28;20036;-86
2022/01/17 07:09:59;;;;;;;6.88;5.30;;;;;;;14.95;46.37;101167.06;5074539;28;20021;-86
2022/01/17 07:12:27;;;;;;;6.97;5.13;;;;;;;14.98;46.40;101176.69;5074666;28;20029;-85
2022/01/17 07:15:37;;;;;;;7.13;5.07;;;;;;;15.00;46.38;101191.56;5074564;28;20066;-85
2022/01/17 07:18:02;;;;;;;6.40;4.85;;;;;;;15.00;46.37;101186.31;5074735;28;20107;-84
2022/01/17 07:20:28;;;;;;;6.43;4.38;;;;;;;14.98;46.32;101193.34;5074699;28;20103;-87
2022/01/17 07:23:46;;;;;;;6.20;4.85;;;;;;;14.98;46.53;101193.34;5075921;28;20445;-88
2022/01/17 07:26:12;;;;;;;;;;;;;;;15.02;46.38;101200.28;5077267;28;20012;-84
2022/01/17 07:28:37;;;;;;;6.73;4.60;;;;;;;15.03;46.35;101207.28;5077196;28;19924;-86
2022/01/17 07:31:37;;;;;;;6.05;4.43;;;;;;;15.06;46.39;101205.53;5079874;28;20090;-86
2022/01/17 07:34:24;;;;;;;5.88;4.63;;;;;;;15.06;46.27;101210.81;5079549;28;20327;-86
2022/01/17 07:36:50;;;;;;;6.32;4.40;;;;;;;15.06;46.39;101218.69;5078285;28;20024;-86
2022/01/17 07:40:11;;;;;;;6.13;4.68;;;;;;;15.07;46.31;101216.06;5083273;28;20036;-85
2022/01/17 07:42:40;;;;;;;6.25;4.65;;;;;;;15.05;46.31;101233.59;5078132;28;20068;-86
2022/01/17 07:45:12;;;;;;;6.38;4.80;;;;;;;15.07;46.27;101239.72;5077872;28;20546;-86
2022/01/17 07:51:08;;;;;;;6.20;4.47;;;;;;;15.11;46.45;101287.91;5068071;28;20137;-86
2022/01/17 07:53:33;;;;;;;6.88;4.57;;;;;;;15.09;46.50;101287.00;5078302;28;20025;-86
2022/01/17 07:55:59;;;;;;;5.88;4.32;;;;;;;15.09;46.33;101268.59;5079510;28;20077;-87
2022/01/17 07:58:24;;;;;;;6.63;4.47;;;;;;;15.07;46.27;101265.13;5078581;28;20473;-87
2022/01/17 08:01:24;;;;;;;5.95;4.15;;;;;;;15.11;46.51;101241.41;5078648;28;20020;-87
2022/01/17 08:03:50;;;;;;;6.20;4.63;;;;;;;15.10;46.47;101229.16;5089038;28;20104;-87
2022/01/17 08:06:27;;;;;;;5.88;4.47;;;;;;;15.11;46.32;101220.38;5099863;28;20102;-85
2022/01/17 08:12:15;;;;;;;6.88;4.30;;;;;;;15.14;46.43;101223.00;5099858;28;20135;-86
2022/01/17 08:14:41;;;;;;;6.80;4.47;;;;;;;15.13;46.47;101217.75;5098749;28;20067;-86
2022/01/17 08:17:28;;;;;;;7.10;4.88;;;;;;;15.14;46.46;101216.84;5098044;28;20055;-86
2022/01/17 08:19:53;;;;;;;6.20;4.60;;;;;;;15.14;46.52;101214.22;5098072;28;20040;-86
2022/01/17 08:22:31;;;;;;;6.07;4.35;;;;;;;15.15;46.40;101229.13;5098368;28;20143;-86
2022/01/17 08:25:25;;;;;;;5.97;4.47;;;;;;;15.16;46.46;101225.63;5100170;28;20039;-87
2022/01/17 08:27:51;;;;;;;6.65;4.63;;;;;;;15.17;46.40;101240.50;5100130;28;20034;-85
2022/01/17 08:30:32;;;;;;;6.63;4.90;;;;;;;15.18;46.30;101252.78;5097863;28;20028;-86
2022/01/17 08:33:28;;;;;;;6.25;4.32;;;;;;;15.19;46.44;101238.72;5098526;28;20035;-87
2022/01/17 08:35:54;;;;;;;7.60;5.57;;;;;;;15.17;46.26;101246.63;5097872;28;20028;-87
2022/01/17 08:38:32;;;;;;;7.40;5.40;;;;;;;15.22;46.02;101238.72;5100899;28;20057;-87
2022/01/17 08:41:19;;;;;;;7.20;5.35;;;;;;;15.21;46.02;101236.94;5099184;28;20054;-87
2022/01/17 08:43:46;;;;;;;9.32;5.63;;;;;;;15.22;46.15;101257.13;5098664;28;20038;-89
2022/01/17 08:46:27;;;;;;;8.13;5.45;;;;;;;15.22;45.87;101256.25;5097683;28;20038;-89
2022/01/17 08:49:02;;;;;;;7.85;4.97;;;;;;;15.20;46.02;101245.72;5098483;28;20027;-89
2022/01/17 08:51:43;;;;;;;8.23;5.43;;;;;;;15.22;45.82;101249.25;5098238;28;20107;-90
2022/01/17 08:54:31;;;;;;;8.25;5.65;;;;;;;15.23;45.79;101264.13;5103723;28;20036;-90
2022/01/17 09:00:20;;;;;;;7.80;5.65;;;;;;;15.16;45.91;101262.44;5099104;28;20105;-88
2022/01/17 09:02:45;;;;;;;6.80;4.95;;;;;;;15.18;45.71;101255.41;5097334;28;20035;-89
2022/01/17 09:05:11;;;;;;;8.05;5.68;;;;;;;15.19;45.62;101265.03;5098817;28;20043;-88
2022/01/17 09:07:37;;;;;;;9.20;6.22;;;;;;;15.16;45.60;101258.03;5099893;28;20027;-88
2022/01/17 09:10:21;;;;;;;8.68;6.38;;;;;;;15.13;45.62;101272.97;5098822;28;20361;-90
2022/01/17 09:12:47;;;;;;;8.60;6.32;;;;;;;15.14;45.68;101277.34;5097277;28;20031;-89
2022/01/17 09:15:13;;;;;;;9.43;6.30;;;;;;;15.12;45.55;101273.84;5102407;28;20035;-86
2022/01/17 09:17:39;;;;;;;8.73;6.15;;;;;;;15.13;45.33;101275.59;5102772;28;20457;-88
2022/01/17 09:20:06;;;;;;;8.20;6.32;;;;;;;15.09;45.65;101282.63;5109602;28;20035;-87
2022/01/17 09:22:34;;;;;;;9.60;6.93;;;;;;;15.15;45.42;101284.34;5102000;28;20028;-89
2022/01/17 09:25:00;;;;;;;9.90;7.53;;;;;;;15.14;45.26;101287.84;5103182;28;20028;-88
2022/01/17 09:27:26;;;;;;;8.50;6.78;;;;;;;15.08;45.26;101269.50;5104950;28;20070;-89
2022/01/17 09:29:52;;;;;;;8.48;6.25;;;;;;;15.14;45.29;101266.81;5102380;28;20020;-87
2022/01/17 09:32:18;;;;;;;8.80;6.65;;;;;;;15.14;45.15;101262.44;5098398;28;20036;-90
2022/01/17 09:34:46;;;;;;;9.70;7.07;;;;;;;15.11;45.18;101256.34;5107173;28;20046;-86
2022/01/17 09:37:13;;;;;;;8.15;6.50;;;;;;;15.09;45.25;101252.81;5097711;28;20036;-88
2022/01/17 09:39:39;;;;;;;10.23;7.53;;;;;;;15.09;45.29;101258.97;5100473;28;20078;-88
2022/01/17 09:42:09;;;;;;;9.25;6.38;;;;;;;15.09;45.19;101258.09;5099685;28;20385;-88
2022/01/17 09:44:36;;;;;;;9.40;6.60;;;;;;;15.08;45.27;101261.59;5099280;28;20032;-87
2022/01/17 09:47:09;;;;;;;8.55;6.60;;;;;;;15.06;45.24;101252.88;5102753;28;20111;-89
2022/01/17 09:49:49;;;;;;;8.82;6.25;;;;;;;15.05;45.26;101256.38;5106506;28;20535;-88
2022/01/17 09:54:47;;;;;;;8.40;5.70;;;;;;;15.07;45.26;101254.59;5111835;28;20375;-87
2022/01/17 09:57:15;;;;;;;8.52;6.53;;;;;;;15.07;45.34;101263.38;5111272;28;20097;-87
2022/01/17 09:59:41;;;;;;;9.48;7.18;;;;;;;15.07;45.17;101276.53;5091738;28;20038;-87
2022/01/17 10:02:10;;;;;;;8.80;6.10;;;;;;;15.03;45.36;101301.94;5111333;28;20031;-87
2022/01/17 10:04:37;;;;;;;9.48;7.85;;;;;;;15.03;45.22;101330.84;5106611;28;20067;-87
2022/01/17 10:07:05;;;;;;;9.32;7.00;;;;;;;15.05;45.31;101351.03;5106674;28;20038;-90
2022/01/17 10:09:33;;;;;;;8.38;6.70;;;;;;;15.05;45.26;101377.34;5107736;28;20038;-86
2022/01/17 10:12:15;;;;;;;9.05;6.75;;;;;;;15.07;45.18;101380.81;5108639;28;20104;-88
2022/01/17 10:15:01;;;;;;;9.98;7.00;;;;;;;15.04;45.22;101368.56;5110251;28;20038;-88
2022/01/17 10:17:48;;;;;;;9.10;6.82;;;;;;;15.04;45.38;101365.94;5108916;28;20031;-89
2022/01/17 10:20:17;;;;;;;9.30;6.85;;;;;;;15.03;45.38;101338.75;5109697;28;20058;-88
2022/01/17 10:23:06;;;;;;;9.73;6.57;;;;;;;15.02;45.30;101308.09;5109944;28;20062;-89
2022/01/17 10:28:40;;;;;;;9.60;7.00;;;;;;;14.98;45.43;101314.28;5110197;28;20032;-89
2022/01/17 10:37:06;;;;;;;8.30;6.50;;;;;;;15.02;45.64;101294.94;5106350;28;20035;-88
2022/01/17 10:39:35;;;;;;;10.23;7.43;;;;;;;14.99;45.85;101321.28;5107316;28;20032;-89
2022/01/17 10:42:22;;;;;;;9.50;6.85;;;;;;;15.01;45.62;101318.63;5106101;28;20047;-88
2022/01/17 10:44:48;;;;;;;8.90;6.35;;;;;;;15.00;45.65;101307.22;5104958;28;20028;-89
2022/01/17 10:47:27;;;;;;;9.63;7.07;;;;;;;15.01;45.78;101292.34;5105899;28;20085;-90
2022/01/17 10:49:59;;;;;;;8.68;6.47;;;;;;;15.00;45.74;101291.47;5105222;28;20051;-89
2022/01/17 10:52:58;;;;;;;9.82;6.90;;;;;;;15.03;45.75;101290.56;5105818;28;20032;-89
2022/01/17 10:55:27;;;;;;;8.43;6.55;;;;;;;15.03;45.72;101291.44;5050870;28;20050;-89
2022/01/17 10:57:57;;;;;;;10.00;6.60;;;;;;;15.09;45.73;101285.28;5108085;28;20044;-89
2022/01/17 11:00:25;;;;;;;10.40;7.30;;;;;;;15.04;45.92;101263.38;5105588;28;20030;-89
2022/01/17 11:02:54;;;;;;;8.25;6.10;;;;;;;15.05;45.92;101261.66;5105807;28;20046;-89
2022/01/17 11:05:22;;;;;;;7.90;6.13;;;;;;;15.00;46.00;101246.75;5104190;28;20035;-88
2022/01/17 11:07:51;;;;;;;9.23;7.07;;;;;;;15.07;45.94;101241.47;5106383;28;20043;-88
2022/01/17 11:10:27;;;;;;;9.10;6.60;;;;;;;15.08;46.04;101253.72;5106577;28;20020;-89
2022/01/17 11:12:55;;;;;;;7.90;6.50;;;;;;;15.11;45.85;101264.22;5106319;28;20031;-89
2022/01/17 11:15:22;;;;;;;8.82;6.75;;;;;;;15.11;45.73;101251.09;5105944;28;20060;-88
2022/01/17 11:17:55;;;;;;;10.02;7.40;;;;;;;15.11;45.81;101251.94;5106723;28;20047;-89
2022/01/17 11:20:27;;;;;;;8.98;6.78;;;;;;;15.12;45.80;101263.34;5107397;28;20024;-89
2022/01/17 11:22:55;;;;;;;10.43;7.03;;;;;;;15.11;45.80;101256.34;5110268;28;20038;-87
2022/01/17 11:25:24;;;;;;;12.00;7.32;;;;;;;15.12;45.92;101263.34;5107298;28;20028;-87
2022/01/17 11:27:51;;;;;;;10.10;7.32;;;;;;;15.13;45.91;101270.34;5107637;28;20047;-88
2022/01/17 11:30:17;;;;;;;9.27;7.18;;;;;;;15.10;45.95;101268.59;5107469;28;20024;-87
2022/01/17 11:32:48;;;;;;;10.50;7.95;;;;;;;15.13;46.04;101263.34;5107745;28;20109;-89
2022/01/17 11:35:16;;;;;;;10.02;7.68;;;;;;;15.16;45.88;101251.91;5107681;28;20028;-88
2022/01/17 11:37:47;;;;;;;10.65;7.55;;;;;;;15.16;45.93;101249.28;5107670;28;20028;-88
2022/01/17 11:40:14;;;;;;;12.18;8.75;;;;;;;15.17;45.87;101230.00;5105895;28;20054;-89
2022/01/17 11:42:46;;;;;;;12.82;8.45;;;;;;;15.16;45.89;101228.25;5106785;28;20113;-88
2022/01/17 11:45:21;;;;;;;9.65;8.02;;;;;;;15.19;45.89;101217.69;5105370;28;20447;-88
2022/01/17 11:47:48;;;;;;;11.52;8.52;;;;;;;15.20;45.79;101208.06;5108201;28;20028;-89
2022/01/17 11:50:30;;;;;;;12.18;7.75;;;;;;;15.16;46.00;101201.97;5106927;28;20062;-89
2022/01/17 11:53:20;;;;;;;11.60;8.55;;;;;;;15.18;46.25;101205.44;5104567;28;20082;-88
2022/01/17 11:55:48;;;;;;;12.77;8.88;;;;;;;15.17;45.91;101227.38;5105223;28;20416;-88
2022/01/17 11:58:29;;;;;;;13.07;9.48;;;;;;;15.23;45.93;101258.88;5104425;28;20028;-90
2022/01/17 12:01:00;;;;;;;12.95;9.20;;;;;;;15.23;46.14;101277.28;5106665;28;20024;-89
2022/01/17 12:03:30;;;;;;;12.18;9.07;;;;;;;15.23;45.99;101281.66;5105762;28;20063;-88
2022/01/17 12:06:04;;;;;;;12.95;9.10;;;;;;;15.22;45.97;101264.13;5104825;28;20039;-86
2022/01/17 12:08:30;;;;;;;13.45;10.10;;;;;;;15.24;45.87;101243.94;5104920;28;20028;-89
2022/01/17 12:11:00;;;;;;;14.27;10.05;;;;;;;15.26;45.98;101244.81;5105068;28;20028;-87
2022/01/17 12:13:39;;;;;;;15.77;11.18;;;;;;;15.27;45.88;101243.94;5106443;28;20047;-89
2022/01/17 12:16:14;;;;;;;12.55;9.50;;;;;;;15.29;45.98;101237.78;5108233;28;20035;-90
2022/01/17 12:18:47;;;;;;;14.93;10.60;;;;;;;15.25;45.93;101211.53;5111262;28;20039;-90
2022/01/17 12:21:44;;;;;;;15.73;10.57;;;;;;;15.26;45.90;101208.00;5111230;28;20089;-87
2022/01/17 12:24:34;;;;;;;15.73;10.40;;;;;;;15.30;46.00;101199.19;5115975;28;20020;-90
2022/01/17 12:27:12;;;;;;;15.02;11.05;;;;;;;15.28;45.80;101196.59;5111255;28;20103;-88
2022/01/17 12:29:42;;;;;;;15.50;10.32;;;;;;;15.28;45.91;101191.31;5113973;28;20008;-90
2022/01/17 12:32:20;;;;;;;12.57;9.30;;;;;;;15.29;45.90;101186.91;5111268;28;20508;-89
2022/01/17 12:34:46;;;;;;;13.75;10.73;;;;;;;15.27;46.09;101181.66;5110897;28;20024;-88
2022/01/17 12:37:33;;;;;;;12.73;10.13;;;;;;;15.29;46.04;101193.06;5111935;28;20083;-88